Flight Track Log - Related Links

Times and Time Zones

All times are in EDT time to prevent confusion due to time zone crossing. See the EJA729 flight status page for this flight to view local times or setup timezone preferences in your user account.

Time Position Orientation Groundspeed Altitude Reporting Facility
EDT Latitude Longitude Course Direction KTS MPH feet Rate Location/Type
Tue 06:43:04 PM 43.5317 -110.7864 206° Southwest 189 217 12,000  Level Salt Lake Center
Tue 06:44:06 PM 43.4722 -110.8300 208° Southwest 244 281 15,700 3,024 Climbing Salt Lake Center
Tue 06:45:07 PM 43.4889 -110.9331 283° West 310 357 18,200 2,732 Climbing Salt Lake Center
Tue 06:46:00 PM 43.8549 -111.5022 294° West  Level FlightAware Approximate
Tue 06:46:09 PM 43.5492 -111.0603 303° West 348 400 21,300  Level Salt Lake Center
Tue 06:47:00 PM 43.8955 -111.6322 293° West  Level FlightAware Approximate
Tue 06:47:11 PM 43.6042 -111.1750 304° West 369 425 24,100  Level Salt Lake Center
Tue 06:48:13 PM 43.6600 -111.2903 304° West 376 433 26,600 2,516 Climbing Salt Lake Center
Tue 06:49:15 PM 43.7242 -111.4269 303° West 378 435 29,300 2,000 Climbing Salt Lake Center
Tue 06:50:16 PM 43.7806 -111.5453 303° West 383 441 30,700 1,512 Climbing Salt Lake Center
Tue 06:51:18 PM 43.8492 -111.6914 303° West 400 460 32,400 1,548 Climbing Salt Lake Center
Tue 06:52:20 PM 43.9075 -111.8172 303° West 403 464 33,900 1,500 Climbing Salt Lake Center
Tue 06:53:22 PM 43.9761 -111.9636 303° West 404 465 35,500 1,512 Climbing Salt Lake Center
Tue 06:54:23 PM 44.0331 -112.0864 303° West 396 456 37,000 1,220 Climbing Salt Lake Center
Tue 06:55:25 PM 44.0875 -112.2122 301° West 395 455 38,000 484 Climbing Salt Lake Center
Tue 06:56:27 PM 44.1194 -112.3750 285° West 390 449 38,000  Level Salt Lake Center
Tue 06:57:29 PM 44.1450 -112.5142 284° West 389 448 38,000 49 Level Salt Lake Center
Tue 06:58:30 PM 44.1742 -112.6700 285° West 374 430 38,100  Climbing Salt Lake Center
Tue 06:59:32 PM 44.2003 -112.8069 285° West 380 437 38,000 -48 Descending Salt Lake Center
Tue 07:00:34 PM 44.2233 -112.9414 284° West 374 430 38,000  Level Salt Lake Center
Tue 07:01:36 PM 44.2514 -113.0972 284° West 372 428 38,000  Level Salt Lake Center
Tue 07:02:37 PM 44.2778 -113.2367 285° West 384 442 38,000  Level Salt Lake Center
Tue 07:03:39 PM 44.3050 -113.3936 284° West 375 432 38,000  Level Salt Lake Center
Tue 07:04:41 PM 44.3278 -113.5281 283° West 372 428 38,000  Level Salt Lake Center
Tue 07:05:42 PM 44.3564 -113.6819 285° West 366 421 38,000  Level Salt Lake Center
Tue 07:06:44 PM 44.3778 -113.8128 283° West 365 420 38,000  Level Salt Lake Center
Tue 07:07:46 PM 44.4008 -113.9475 284° West 367 422 38,000  Level Salt Lake Center
Tue 07:08:48 PM 44.4281 -114.1011 284° West 366 421 38,000  Level Salt Lake Center
Tue 07:09:49 PM 44.4494 -114.2319 283° West 363 418 38,000  Level Salt Lake Center
Tue 07:10:51 PM 44.4775 -114.3867 284° West 365 420 38,000  Level Salt Lake Center
Tue 07:11:53 PM 44.4997 -114.5219 283° West 369 425 38,000  Level Salt Lake Center
Tue 07:12:54 PM 44.5264 -114.6792 283° West 372 428 38,000  Level Salt Lake Center
Tue 07:13:56 PM 44.5483 -114.8133 283° West 370 426 38,000  Level Salt Lake Center
Tue 07:14:58 PM 44.5703 -114.9486 283° West 371 427 38,000  Level Salt Lake Center
Tue 07:15:59 PM 44.5956 -115.1042 283° West 369 425 38,000  Level Salt Lake Center
Tue 07:17:01 PM 44.6167 -115.2367 283° West 366 421 38,000  Level Salt Lake Center
Tue 07:18:03 PM 44.6417 -115.3936 283° West 368 423 38,000  Level Salt Lake Center
Tue 07:19:05 PM 44.6633 -115.5286 283° West 371 427 38,000  Level Salt Lake Center
Tue 07:20:06 PM 44.6881 -115.6850 283° West 369 425 38,000  Level Salt Lake Center
Tue 07:21:08 PM 44.7089 -115.8178 282° West 367 422 38,000  Level Salt Lake Center
Tue 07:22:10 PM 44.7322 -115.9725 282° West 365 420 38,000  Level Salt Lake Center
Tue 07:23:11 PM 44.7531 -116.1044 283° West 365 420 38,000  Level Salt Lake Center
Tue 07:24:13 PM 44.7839 -116.2561 286° West 366 421 38,000  Level Salt Lake Center
Tue 07:25:15 PM 44.8300 -116.3822 297° West 380 437 38,000  Level Salt Lake Center
Tue 07:26:16 PM 44.8822 -116.5308 296° West 381 438 38,000  Level Salt Lake Center
Tue 07:27:18 PM 44.9278 -116.6567 297° West 379 436 38,000  Level Salt Lake Center
Tue 07:28:20 PM 44.9728 -116.7844 297° West 379 436 38,000  Level Salt Lake Center
Tue 07:29:21 PM 45.0239 -116.9322 296° West 377 434 38,000  Level Salt Lake Center
Tue 07:30:41 PM 45.0833 -117.1042 296° West 380 437 38,000  Level Seattle Center
Tue 07:31:25 PM 45.1211 -117.2097 297° West 380 437 38,000  Level Salt Lake Center
Tue 07:32:27 PM 45.1647 -117.3408 295° West 384 442 38,000  Level Salt Lake Center
Tue 07:33:28 PM 45.2175 -117.4931 296° West 386 444 38,000  Level Salt Lake Center
Tue 07:34:30 PM 45.2633 -117.6258 296° West 391 450 38,000  Level Salt Lake Center
Tue 07:35:32 PM 45.3069 -117.7564 295° West 385 443 38,000  Level Salt Lake Center
Tue 07:36:34 PM 45.3531 -117.8933 296° West 383 441 38,000  Level Salt Lake Center
Tue 07:37:48 PM 45.4169 -118.0842 296° West 384 442 38,000  Level Seattle Center
Tue 07:38:50 PM 45.4636 -118.2217 296° West 387 445 38,000  Level Seattle Center
Tue 07:39:51 PM 45.5092 -118.3606 295° West 389 448 38,000  Level Seattle Center
Tue 07:40:52 PM 45.5550 -118.5011 295° West 392 451 38,000  Level Seattle Center
Tue 07:41:53 PM 45.6017 -118.6406 296° West 392 451 38,000  Level Seattle Center
Tue 07:42:54 PM 45.6472 -118.7817 295° West 393 452 38,000  Level Seattle Center
Tue 07:43:55 PM 45.6933 -118.9217 295° West 392 451 38,000  Level Seattle Center
Tue 07:44:56 PM 45.7628 -119.0486 308° West 408 470 38,000  Level Seattle Center
Tue 07:45:57 PM 45.8367 -119.1725 311° West 410 472 38,000  Level Seattle Center
Tue 07:46:58 PM 45.9247 -119.3222 310° West 411 473 38,000  Level Seattle Center
Tue 07:47:59 PM 45.9994 -119.4528 310° West 422 486 38,000  Level Seattle Center
Tue 07:49:01 PM 46.0789 -119.5881 310° West 438 504 38,000  Level Seattle Center
Tue 07:50:02 PM 46.1550 -119.7194 310° West 434 499 38,000  Level Seattle Center
Tue 07:51:03 PM 46.2331 -119.8550 310° West 438 504 38,000  Level Seattle Center
Tue 07:52:04 PM 46.3119 -119.9917 310° West 444 511 38,000  Level Seattle Center
Tue 07:53:05 PM 46.3914 -120.1314 310° West 449 517 38,000  Level Seattle Center
Tue 07:54:06 PM 46.4703 -120.2692 310° West 449 517 38,000 -393 Level Seattle Center
Tue 07:55:07 PM 46.5492 -120.4075 310° West 447 514 37,200 -1,525 Descending Seattle Center
Tue 07:56:08 PM 46.6214 -120.5539 306° West 447 514 34,900 -2,410 Descending Seattle Center
Tue 07:57:09 PM 46.6989 -120.7156 305° West 416 479 32,300 -2,410 Descending Seattle Center
Tue 07:58:10 PM 46.7667 -120.8597 304° West 430 495 30,000 -2,311 Descending Seattle Center
Tue 07:59:11 PM 46.8506 -121.0028 311° West 461 531 27,600 -2,410 Descending Seattle Center
Tue 08:00:12 PM 46.9375 -121.1381 313° West 460 529 25,100 -2,488 Descending Seattle Center
Tue 08:01:14 PM 47.0289 -121.2714 315° West 450 518 22,500 -2,098 Descending Seattle Center
Tue 08:02:15 PM 47.0600 -121.4250 287° West 394 453 20,800 -1,672 Descending Seattle Center
Tue 08:03:16 PM 47.0892 -121.5539 288° West 345 397 19,100 -1,869 Descending Seattle Center
Tue 08:04:17 PM 47.1492 -121.6811 305° West 342 394 17,000 -1,869 Descending Seattle Center
Tue 08:05:18 PM 47.2014 -121.7931 305° West 333 383 15,300 -1,377 Descending Seattle Center
Tue 08:06:19 PM 47.2525 -121.9011 305° West 324 373 14,200 -1,345 Descending Seattle Center
Tue 08:07:14 PM 47.3247 -121.9656 329° Northwest 333 383 12,700 -1,759 Descending Seattle Center
Tue 08:08:15 PM 47.3986 -122.0358 327° Northwest 310 357 10,800 -1,279 Descending Seattle Center
Tue 08:09:16 PM 47.4742 -122.1053 328° Northwest 294 338 10,100 -621 Descending Seattle Center
Tue 08:10:11 PM 47.5408 -122.1569 332° Northwest 289 333 9,600 -1,148 Descending Seattle Center
Tue 08:11:11 PM 47.6181 -122.1633 357° North 279 321 7,900 -2,083 Descending Seattle Center
Tue 08:12:12 PM 47.6839 -122.1692 357° North 231 266 5,400 -2,016 Descending Seattle Center
Tue 08:13:13 PM 47.7475 -122.1736 357° North 221 254 3,800 -1,180 Descending Seattle Center
Tue 08:14:14 PM 47.8056 -122.1839 353° North 220 253 3,000 -344 Descending Seattle Center
Tue 08:15:15 PM 47.8189 -122.2625 284° West 201 231 3,100 -149 Climbing Seattle Center
Tue 08:16:15 PM 47.8156 -122.3467 267° West 182 209 2,700 -397 Descending Seattle Center
Tue 08:17:16 PM 47.8342 -122.4122 293° West 182 209 2,300 -197 Descending Seattle Center
Tue 08:18:17 PM 47.8542 -122.4739 296° West 176 203 2,300  Level Seattle Center
Tue 08:19:18 PM 47.8186 -122.5100 214° Southwest 175 201 2,300  Level Seattle Center
Tue 08:20:12 PM 47.7778 -122.5061 176° South 162 186 2,300  Level Seattle Center
Tue 08:21:19 PM 47.7331 -122.4781 157° South 168 193 2,300  Level Seattle Center
Tue 08:22:20 PM 47.6925 -122.4411 148° Southeast 162 186 2,300  Level Seattle Center
Tue 08:23:21 PM 47.6536 -122.4097 151° Southeast 162 186 2,300 -295 Level Seattle Center
Tue 08:24:22 PM 47.6139 -122.3758 150° Southeast 162 186 1,700 -645 Descending Seattle Center
Tue 08:25:22 PM 47.5797 -122.3456 149° Southeast 147 169 1,000 -744 Descending Seattle Center
Tue 08:26:23 PM 47.5453 -122.3153 149° Southeast 150 173 200 -787 Descending Seattle Center

Login

Don't have an account? Register now (free) for customized features, flight alerts, and more!